»·PEaware :: ASA1715 KDAL-KSFO

ASA1715 :: KDAL-KSFO

FLIGHT INFORMATION

Flight Status: Arrived
Operator:
Alaska Airlines
More flights by this operator :: More flights under this callsign
Pilot: Kevin M. (7)
Aircraft: BOEING 737-800
(B738)
More flights by this aircraft type
Origin: KDAL Dallas Love
United States
Destination: KSFO San Francisco Intl
United States
More flights between these airports :: More routes between these airports
Route: +KKITY4 HULZE FAKEE KA30S BAVPE LAS BTY RUSME DYAMD3
File this flight plan on PilotEdge
Remarks:
Altitude:
(Current/Filed)
36,000ft
Speed:
(Current/Filed)
470kts
Departed: 06-Sep-18 06:33 AM
Arrived: 06-Sep-18 09:45 AM
Distance/Time
Traveled:
1279nm/3:12
Distance/Time
To Go:
Arrived

Flight Plot

Page will automatically refresh every two minutes.

Flight plan parsing failed; only flown route is shown


Map Options




Map Legend


Flown Route
Filed Route
Departure Airport
Arrival Airport
Navaid (VOR, NDB)
Fix

Horizontal Profiles

Position Reports

Time Latitude Longitude Heading Altitude Ground
Speed
06-Sep-18 06:11 32.845524 -96.850979 0 493ft 0kts
06-Sep-18 06:12 32.845524 -96.850979 0 493ft 0kts
06-Sep-18 06:13 32.845524 -96.850979 0 493ft 0kts
06-Sep-18 06:14 32.845524 -96.850979 0 493ft 0kts
06-Sep-18 06:15 32.845524 -96.850979 0 493ft 0kts
06-Sep-18 06:16 32.845524 -96.850979 0 493ft 0kts
06-Sep-18 06:17 32.845524 -96.850979 0 493ft 0kts
06-Sep-18 06:18 32.845524 -96.850979 0 493ft 0kts
06-Sep-18 06:19 32.845524 -96.850979 0 493ft 0kts
06-Sep-18 06:20 32.845524 -96.850979 0 494ft 0kts
06-Sep-18 06:21 32.845524 -96.850979 0 494ft 0kts
06-Sep-18 06:22 32.845524 -96.850979 0 494ft 0kts
06-Sep-18 06:23 32.845332 -96.850983 0 494ft 1kts
06-Sep-18 06:24 32.845100 -96.850700 270 494ft 0kts
06-Sep-18 06:25 32.845100 -96.850701 270 493ft 0kts
06-Sep-18 06:26 32.845100 -96.850762 270 494ft 3kts
06-Sep-18 06:27 32.844479 -96.853672 136 494ft 0kts
06-Sep-18 06:28 32.849950 -96.852577 13 494ft 36kts
06-Sep-18 06:29 32.853962 -96.855751 317 494ft 33kts
06-Sep-18 06:30 32.856119 -96.857812 7 493ft 0kts
06-Sep-18 06:31 32.856164 -96.857794 27 493ft 2kts
06-Sep-18 06:32 32.852367 -96.854107 155 494ft 27kts
06-Sep-18 06:33 32.848209 -96.858037 317 493ft 24kts
06-Sep-18 06:34 32.851428 -96.863236 210 494ft 11kts
06-Sep-18 06:35 32.843577 -96.854464 135 494ft 138kts
06-Sep-18 06:36 32.808308 -96.811294 132 2394ft 208kts
06-Sep-18 06:37 32.759228 -96.750913 133 4526ft 270kts
06-Sep-18 06:38 32.693877 -96.710463 185 7475ft 292kts
06-Sep-18 06:39 32.624992 -96.757230 241 10291ft 307kts
06-Sep-18 06:40 32.614102 -96.865048 271 11668ft 365kts
06-Sep-18 06:41 32.615024 -96.992630 271 13284ft 406kts
06-Sep-18 06:42 32.615598 -97.127844 270 15680ft 419kts
06-Sep-18 06:43 32.615919 -97.266349 270 17941ft 429kts
06-Sep-18 06:44 32.659089 -97.395470 308 19949ft 442kts
06-Sep-18 06:45 32.736876 -97.509605 309 21879ft 454kts
06-Sep-18 06:46 32.817016 -97.627281 309 23638ft 465kts
06-Sep-18 06:47 32.894362 -97.747958 296 25254ft 476kts
06-Sep-18 06:48 32.943722 -97.895030 290 26801ft 486kts
06-Sep-18 06:49 32.992384 -98.045258 290 28348ft 493kts
06-Sep-18 06:50 33.041288 -98.196236 290 30287ft 488kts
06-Sep-18 06:51 33.089538 -98.344962 290 32097ft 477kts
06-Sep-18 06:52 33.135105 -98.485622 289 32103ft 473kts
06-Sep-18 06:53 33.182198 -98.631653 289 32102ft 473kts
06-Sep-18 06:54 33.227824 -98.773795 289 32104ft 472kts
06-Sep-18 06:55 33.274502 -98.919837 289 32104ft 472kts
06-Sep-18 06:56 33.321241 -99.066652 288 33111ft 472kts
06-Sep-18 06:57 33.367193 -99.211685 287 34169ft 467kts
06-Sep-18 06:58 33.412492 -99.355396 287 34188ft 464kts
06-Sep-18 06:59 33.457784 -99.499763 287 34187ft 464kts
06-Sep-18 07:00 33.499533 -99.645519 285 34186ft 463kts
06-Sep-18 07:00 33.532103 -99.763257 285 34217ft 463kts
06-Sep-18 07:02 33.578954 -99.933170 285 34246ft 463kts
06-Sep-18 07:03 33.618996 -100.079040 285 34247ft 462kts
06-Sep-18 07:04 33.659065 -100.225705 284 34247ft 462kts
06-Sep-18 07:05 33.686071 -100.374735 278 34246ft 459kts
06-Sep-18 07:05 33.706051 -100.499431 278 34246ft 459kts
06-Sep-18 07:06 33.730402 -100.649910 278 34245ft 459kts
06-Sep-18 07:08 33.758300 -100.821066 277 34268ft 460kts
06-Sep-18 07:09 33.783033 -100.971502 277 34302ft 458kts
06-Sep-18 07:09 33.803571 -101.095708 276 34321ft 458kts
06-Sep-18 07:10 33.828512 -101.245521 277 34317ft 458kts
06-Sep-18 07:11 33.853514 -101.394630 277 34317ft 458kts
06-Sep-18 07:12 33.878690 -101.543707 277 34318ft 458kts
06-Sep-18 07:13 33.903620 -101.690352 277 34324ft 458kts
06-Sep-18 07:14 33.929261 -101.840190 277 34322ft 458kts
06-Sep-18 07:15 33.955096 -101.990048 277 34317ft 458kts
06-Sep-18 07:16 33.981049 -102.139564 277 34317ft 458kts
06-Sep-18 07:17 34.007108 -102.288675 277 34322ft 458kts
06-Sep-18 07:18 34.033553 -102.438976 277 34352ft 458kts
06-Sep-18 07:19 34.060127 -102.588996 278 34379ft 458kts
06-Sep-18 07:20 34.086419 -102.736531 277 34390ft 458kts
06-Sep-18 07:21 34.112829 -102.883725 277 34381ft 458kts
06-Sep-18 07:22 34.139815 -103.033065 277 34382ft 458kts
06-Sep-18 07:23 34.166878 -103.181891 277 34387ft 454kts
06-Sep-18 07:24 34.194025 -103.330299 277 34388ft 454kts
06-Sep-18 07:25 34.221408 -103.478964 277 34387ft 454kts
06-Sep-18 07:26 34.249029 -103.627973 278 34387ft 454kts
06-Sep-18 07:27 34.276284 -103.774233 277 34392ft 454kts
06-Sep-18 07:28 34.304064 -103.922286 277 34392ft 454kts
06-Sep-18 07:29 34.332074 -104.070607 278 34401ft 454kts
06-Sep-18 07:30 34.360271 -104.219004 278 34409ft 454kts
06-Sep-18 07:31 34.388634 -104.367372 278 34408ft 454kts
06-Sep-18 07:32 34.417067 -104.515218 278 34411ft 453kts
06-Sep-18 07:33 34.443698 -104.652936 278 34407ft 454kts
06-Sep-18 07:34 34.471849 -104.797839 278 34412ft 454kts
06-Sep-18 07:35 34.500965 -104.946789 278 34412ft 455kts
06-Sep-18 07:36 34.530213 -105.095970 278 34411ft 458kts
06-Sep-18 07:37 34.559190 -105.244754 278 34410ft 459kts
06-Sep-18 07:38 34.585767 -105.395309 276 34410ft 458kts
06-Sep-18 07:39 34.608706 -105.546012 275 34410ft 457kts
06-Sep-18 07:40 34.630984 -105.693898 275 34417ft 457kts
06-Sep-18 07:41 34.653791 -105.844194 275 34421ft 457kts
06-Sep-18 07:42 34.677005 -105.995857 275 34422ft 457kts
06-Sep-18 07:43 34.700237 -106.146448 275 34421ft 457kts
06-Sep-18 07:44 34.723531 -106.296286 276 34422ft 458kts
06-Sep-18 07:45 34.747198 -106.447322 276 34420ft 457kts
06-Sep-18 07:46 34.770690 -106.596143 276 34421ft 458kts
06-Sep-18 07:47 34.794402 -106.745368 275 34425ft 457kts
06-Sep-18 07:49 34.818668 -106.896912 276 34433ft 459kts
06-Sep-18 07:50 34.843349 -107.049833 276 34451ft 462kts
06-Sep-18 07:51 34.868272 -107.203081 276 34452ft 462kts
06-Sep-18 07:52 34.893290 -107.355806 276 34457ft 462kts
06-Sep-18 07:53 34.918464 -107.508376 276 34481ft 462kts
06-Sep-18 07:54 34.943594 -107.659680 276 34486ft 461kts
06-Sep-18 07:55 34.969055 -107.812129 276 34488ft 460kts
06-Sep-18 07:56 34.994726 -107.964769 276 34490ft 460kts
06-Sep-18 07:57 35.019339 -108.117849 275 34486ft 458kts
06-Sep-18 07:58 35.040481 -108.270657 275 34487ft 458kts
06-Sep-18 07:59 35.061654 -108.423643 275 34459ft 458kts
06-Sep-18 08:00 35.083066 -108.576888 275 34444ft 459kts
06-Sep-18 08:01 35.102647 -108.715941 274 34436ft 457kts
06-Sep-18 08:02 35.124352 -108.868744 275 34433ft 458kts
06-Sep-18 08:03 35.146194 -109.021363 276 34433ft 453kts
06-Sep-18 08:04 35.167985 -109.172348 279 34439ft 456kts
06-Sep-18 08:05 35.190322 -109.325314 279 34448ft 459kts
06-Sep-18 08:06 35.212904 -109.478832 280 34447ft 458kts
06-Sep-18 08:07 35.235622 -109.632230 280 34407ft 459kts
06-Sep-18 08:08 35.257639 -109.779716 280 34395ft 457kts
06-Sep-18 08:09 35.280665 -109.932531 280 34353ft 457kts
06-Sep-18 08:10 35.303828 -110.085127 280 34345ft 457kts
06-Sep-18 08:11 35.327248 -110.238064 280 34348ft 456kts
06-Sep-18 08:12 35.350860 -110.391101 280 34346ft 456kts
06-Sep-18 08:13 35.374525 -110.543236 280 34342ft 457kts
06-Sep-18 08:14 35.397940 -110.692711 280 34347ft 457kts
06-Sep-18 08:15 35.421975 -110.845109 280 34346ft 457kts
06-Sep-18 08:16 35.446057 -110.996589 281 34346ft 447kts
06-Sep-18 08:17 35.469843 -111.145251 284 34349ft 442kts
06-Sep-18 08:18 35.493736 -111.292963 284 34416ft 442kts
06-Sep-18 08:19 35.517731 -111.440467 284 34456ft 443kts
06-Sep-18 08:20 35.541955 -111.588371 284 34451ft 442kts
06-Sep-18 08:21 35.565638 -111.732259 284 34442ft 443kts
06-Sep-18 08:22 35.590112 -111.880159 284 34424ft 443kts
06-Sep-18 08:23 35.612729 -112.028409 282 34428ft 442kts
06-Sep-18 08:24 35.633167 -112.176642 282 34427ft 443kts
06-Sep-18 08:25 35.653828 -112.325713 282 34431ft 443kts
06-Sep-18 08:26 35.674622 -112.474469 283 34435ft 443kts
06-Sep-18 08:27 35.695672 -112.623808 283 34435ft 443kts
06-Sep-18 08:28 35.716289 -112.769073 282 34036ft 441kts
06-Sep-18 08:29 35.737531 -112.917313 282 33052ft 437kts
06-Sep-18 08:30 35.758177 -113.060275 284 34120ft 430kts
06-Sep-18 08:31 35.779385 -113.205686 284 34003ft 431kts
06-Sep-18 08:32 35.800688 -113.350686 284 33923ft 431kts
06-Sep-18 08:33 35.822173 -113.495762 284 33921ft 431kts
06-Sep-18 08:34 35.843872 -113.641112 284 33920ft 432kts
06-Sep-18 08:35 35.862777 -113.767223 284 33926ft 432kts
06-Sep-18 08:36 35.884706 -113.912123 284 33925ft 432kts
06-Sep-18 08:37 35.906887 -114.057467 284 33912ft 432kts
06-Sep-18 08:38 35.929078 -114.201780 284 33867ft 431kts
06-Sep-18 08:39 35.951608 -114.347202 284 33848ft 431kts
06-Sep-18 08:40 35.974252 -114.492288 284 33846ft 431kts
06-Sep-18 08:41 35.997094 -114.637572 285 33845ft 432kts
06-Sep-18 08:42 36.019564 -114.779951 284 33851ft 432kts
06-Sep-18 08:43 36.042582 -114.924592 284 33846ft 432kts
06-Sep-18 08:44 36.065827 -115.069565 284 33847ft 429kts
06-Sep-18 08:45 36.100667 -115.207062 300 33859ft 421kts
06-Sep-18 08:46 36.157502 -115.330169 301 33848ft 421kts
06-Sep-18 08:47 36.215143 -115.456828 300 34101ft 423kts
06-Sep-18 08:48 36.272122 -115.583283 300 35376ft 419kts
06-Sep-18 08:49 36.327540 -115.706337 300 35904ft 416kts
06-Sep-18 08:50 36.383975 -115.831418 300 35903ft 416kts
06-Sep-18 08:51 36.440399 -115.956093 300 35902ft 416kts
06-Sep-18 08:52 36.497210 -116.081337 300 35900ft 416kts
06-Sep-18 08:53 36.553621 -116.205423 301 35898ft 416kts
06-Sep-18 08:54 36.610439 -116.330153 301 35897ft 416kts
06-Sep-18 08:55 36.667405 -116.454947 301 35895ft 416kts
06-Sep-18 08:56 36.724380 -116.579507 301 35894ft 416kts
06-Sep-18 08:57 36.777673 -116.695881 300 35901ft 416kts
06-Sep-18 08:58 36.851214 -116.804993 317 35922ft 415kts
06-Sep-18 08:59 36.937839 -116.900133 317 36011ft 415kts
06-Sep-18 09:00 37.024567 -116.995816 316 36043ft 419kts
06-Sep-18 09:01 37.110524 -117.091040 316 36047ft 418kts
06-Sep-18 09:02 37.197419 -117.187688 315 36047ft 418kts
06-Sep-18 09:03 37.284070 -117.284402 315 36047ft 418kts
06-Sep-18 09:04 37.370657 -117.381360 315 36042ft 417kts
06-Sep-18 09:05 37.456633 -117.478833 311 36004ft 416kts
06-Sep-18 09:06 37.502211 -117.608798 279 36000ft 417kts
06-Sep-18 09:07 37.511927 -117.725245 277 35988ft 418kts
06-Sep-18 09:08 37.523384 -117.869564 277 35966ft 418kts
06-Sep-18 09:09 37.534847 -118.014743 278 35964ft 418kts
06-Sep-18 09:10 37.546211 -118.160178 278 35964ft 418kts
06-Sep-18 09:11 37.557450 -118.305854 278 35962ft 418kts
06-Sep-18 09:12 37.568489 -118.450940 278 36030ft 418kts
06-Sep-18 09:13 37.579382 -118.596244 278 36125ft 418kts
06-Sep-18 09:14 37.589563 -118.734964 277 36155ft 418kts
06-Sep-18 09:15 37.599931 -118.879130 277 36158ft 418kts
06-Sep-18 09:16 37.610296 -119.025062 276 36157ft 419kts
06-Sep-18 09:16 37.618818 -119.147070 276 36154ft 420kts
06-Sep-18 09:18 37.630561 -119.317995 276 36150ft 420kts
06-Sep-18 09:19 37.640457 -119.464539 276 36148ft 420kts
06-Sep-18 09:20 37.650164 -119.610882 276 36045ft 419kts
06-Sep-18 09:20 37.657631 -119.726272 275 35888ft 421kts
06-Sep-18 09:22 37.668486 -119.897667 275 35802ft 417kts
06-Sep-18 09:23 37.677174 -120.037570 275 35800ft 398kts
06-Sep-18 09:23 37.684203 -120.152055 275 35800ft 398kts
06-Sep-18 09:24 37.692585 -120.291122 275 33427ft 398kts
06-Sep-18 09:25 37.697289 -120.430925 263 30327ft 411kts
06-Sep-18 09:26 37.680968 -120.569578 261 27845ft 390kts
06-Sep-18 09:27 37.666297 -120.692105 260 25709ft 380kts
06-Sep-18 09:28 37.650949 -120.819194 259 23490ft 363kts
06-Sep-18 09:29 37.636039 -120.941641 259 21363ft 360kts
06-Sep-18 09:30 37.620010 -121.064022 258 19244ft 349kts
06-Sep-18 09:31 37.603946 -121.183243 258 17063ft 342kts
06-Sep-18 09:32 37.588772 -121.298904 259 15098ft 329kts
06-Sep-18 09:33 37.575585 -121.413106 259 15107ft 332kts
06-Sep-18 09:34 37.562389 -121.526917 259 14825ft 320kts
06-Sep-18 09:35 37.549933 -121.632050 255 13369ft 284kts
06-Sep-18 09:36 37.527473 -121.726927 251 11962ft 285kts
06-Sep-18 09:37 37.504610 -121.821032 251 10573ft 272kts
06-Sep-18 09:38 37.481535 -121.913256 251 7715ft 299kts
06-Sep-18 09:39 37.465075 -122.015172 283 4985ft 293kts
06-Sep-18 09:40 37.498773 -122.093093 299 4788ft 218kts
06-Sep-18 09:41 37.525755 -122.154781 298 3652ft 189kts
06-Sep-18 09:42 37.549220 -122.210007 298 2680ft 169kts
06-Sep-18 09:43 37.570053 -122.260063 297 1706ft 154kts
06-Sep-18 09:44 37.590051 -122.307469 298 949ft 149kts
06-Sep-18 09:45 37.609907 -122.354122 299 140ft 149kts
06-Sep-18 09:46 37.621665 -122.382233 283 21ft 24kts
06-Sep-18 09:47 37.618534 -122.382692 215 21ft 13kts
06-Sep-18 09:48 37.617718 -122.382822 135 21ft 0kts
06-Sep-18 09:49 37.617719 -122.382822 135 21ft 0kts
06-Sep-18 09:50 37.617719 -122.382822 135 21ft 0kts

Navigation Log

Ident Type
Flight plan parsing failed, navigation log unavailable